Time;durP1;ratioP1;P1;durP2;ratioP2;P2;SDS_P1;SDS_P2;PMS_P1;PMS_P2;Temp;Humidity;BMP_temperature;BMP_pressure;BME280_temperature;BME280_humidity;BME280_pressure;Samples;Min_cycle;Max_cycle;Signal;HPM_P1;HPM_P2
2022/06/16 00:00:16;;;;;;;2.05;1.30;;;17.50;59.40;;;;;;2092067;28;20041;-93
2022/06/16 00:01:36;;;;;;;1.85;0.98;;;17.50;59.50;;;;;;2103931;28;20032;-93
2022/06/16 00:02:55;;;;;;;2.20;1.00;;;17.50;59.60;;;;;;2098748;28;20049;-93
2022/06/16 00:04:14;;;;;;;3.30;1.10;;;17.50;59.60;;;;;;2095757;28;20036;-93
2022/06/16 00:05:35;;;;;;;2.65;1.00;;;17.50;59.60;;;;;;2112876;27;20027;-93
2022/06/16 00:06:55;;;;;;;1.50;0.98;;;17.50;59.60;;;;;;2121588;27;20027;-94
2022/06/16 00:08:16;;;;;;;2.30;1.08;;;17.50;59.60;;;;;;2100750;28;20044;-94
2022/06/16 00:09:35;;;;;;;;;;;17.50;59.60;;;;;;2112664;28;20091;-92
2022/06/16 00:12:33;;;;;;;2.03;0.90;;;17.50;59.60;;;;;;2113914;28;20044;-92
2022/06/16 00:13:53;;;;;;;2.63;1.10;;;17.50;59.60;;;;;;2107101;28;20040;-92
2022/06/16 00:15:16;;;;;;;3.05;1.08;;;17.40;59.60;;;;;;2092267;28;20163;-93
2022/06/16 00:16:36;;;;;;;2.72;1.15;;;17.40;59.70;;;;;;2103998;28;20024;-93
2022/06/16 00:17:57;;;;;;;2.72;1.27;;;17.40;59.80;;;;;;2096438;28;20049;-93
2022/06/16 00:19:16;;;;;;;1.67;0.93;;;17.40;59.80;;;;;;2100887;28;20040;-93
2022/06/16 00:20:35;;;;;;;2.97;1.15;;;17.40;59.90;;;;;;2092429;28;20041;-94
2022/06/16 00:21:55;;;;;;;2.45;1.20;;;17.30;60.00;;;;;;2090366;28;20503;-94
2022/06/16 00:23:14;;;;;;;1.98;1.08;;;17.30;60.10;;;;;;2097239;28;20119;-93
2022/06/16 00:24:33;;;;;;;2.08;1.10;;;17.20;60.10;;;;;;2091624;28;20032;-94
2022/06/16 00:25:52;;;;;;;2.67;1.20;;;17.20;60.20;;;;;;2084675;28;20052;-95
2022/06/16 00:27:11;;;;;;;2.10;1.10;;;17.20;60.30;;;;;;2096274;28;20040;-95
2022/06/16 00:28:31;;;;;;;1.80;1.15;;;17.20;60.40;;;;;;2104115;28;20482;-94
2022/06/16 00:29:50;;;;;;;2.22;1.17;;;17.10;60.40;;;;;;2096035;28;20041;-94
2022/06/16 00:31:11;;;;;;;2.65;1.20;;;17.20;60.50;;;;;;2101254;28;20455;-95
2022/06/16 00:32:30;;;;;;;3.92;1.20;;;17.10;60.50;;;;;;2104901;28;20045;-94
2022/06/16 00:33:50;;;;;;;1.92;0.88;;;17.10;60.60;;;;;;2097879;28;20422;-95
2022/06/16 00:35:11;;;;;;;2.35;1.20;;;17.10;60.60;;;;;;2106507;28;20043;-94
2022/06/16 00:36:32;;;;;;;2.35;1.13;;;17.10;60.70;;;;;;2112594;28;20031;-94
2022/06/16 00:37:51;;;;;;;1.08;0.88;;;17.10;60.70;;;;;;2104861;28;20052;-95
2022/06/16 00:39:10;;;;;;;2.58;1.10;;;17.10;60.70;;;;;;2102156;28;20501;-94
2022/06/16 00:40:29;;;;;;;1.88;1.05;;;17.10;60.80;;;;;;2092569;28;20033;-94
2022/06/16 00:41:49;;;;;;;3.50;1.30;;;17.00;60.80;;;;;;2096345;28;20045;-94
2022/06/16 00:43:09;;;;;;;4.32;1.67;;;17.00;61.00;;;;;;2094285;28;20037;-94
2022/06/16 00:44:31;;;;;;;4.18;1.30;;;17.00;61.00;;;;;;2089195;28;20498;-95
2022/06/16 00:45:58;;;;;;;3.30;1.20;;;16.90;61.00;;;;;;2108465;28;20035;-95
2022/06/16 00:47:23;;;;;;;2.25;1.02;;;16.90;61.10;;;;;;2111482;28;20102;-94
2022/06/16 00:48:50;;;;;;;3.00;1.25;;;16.80;61.10;;;;;;2099531;28;20037;-94
2022/06/16 00:50:09;;;;;;;3.13;1.25;;;16.80;61.20;;;;;;2106587;28;20095;-95
2022/06/16 00:51:42;;;;;;;2.65;1.10;;;16.80;61.20;;;;;;2099777;28;20032;-94
2022/06/16 00:53:02;;;;;;;2.78;1.30;;;16.80;61.30;;;;;;2113211;28;20071;-94
2022/06/16 00:54:47;;;;;;;3.53;1.25;;;16.80;61.30;;;;;;2111105;27;20031;-94
2022/06/16 00:56:11;;;;;;;1.75;1.10;;;16.70;61.40;;;;;;2115706;28;20047;-94
2022/06/16 00:57:35;;;;;;;3.00;1.30;;;16.70;61.40;;;;;;2112434;28;20036;-93
2022/06/16 00:58:59;;;;;;;1.95;1.10;;;16.60;61.40;;;;;;2120234;27;20047;-95
2022/06/16 01:01:43;;;;;;;2.22;1.10;;;16.60;61.60;;;;;;2121491;27;20038;-95
2022/06/16 01:03:03;;;;;;;2.42;1.20;;;16.60;61.70;;;;;;2114612;28;20592;-95
2022/06/16 01:06:01;;;;;;;2.17;1.10;;;16.60;61.80;;;;;;2114219;28;20432;-94
2022/06/16 01:07:25;;;;;;;2.22;1.30;;;16.50;61.80;;;;;;2103632;28;20040;-95
2022/06/16 01:08:45;;;;;;;2.92;1.20;;;16.50;61.90;;;;;;2105459;28;20024;-95
2022/06/16 01:10:06;;;;;;;2.00;0.98;;;16.50;62.00;;;;;;2116040;28;20451;-94
2022/06/16 01:13:43;;;;;;;2.90;1.10;;;16.40;62.00;;;;;;2101836;28;20031;-94
2022/06/16 01:15:45;;;;;;;3.17;1.02;;;16.40;62.00;;;;;;2112313;28;20035;-94
2022/06/16 01:17:14;;;;;;;2.38;1.05;;;16.40;62.00;;;;;;2115775;28;20544;-94
2022/06/16 01:18:57;;;;;;;2.40;1.00;;;16.40;62.00;;;;;;2107826;28;20032;-94
2022/06/16 01:20:46;;;;;;;2.58;1.02;;;16.30;62.00;;;;;;2108758;28;20032;-93
2022/06/16 01:22:20;;;;;;;3.60;1.20;;;16.30;62.10;;;;;;2109578;28;20028;-93
2022/06/16 01:24:07;;;;;;;1.50;0.98;;;16.30;62.20;;;;;;2098643;28;20506;-94
2022/06/16 01:25:50;;;;;;;2.53;0.90;;;16.30;62.30;;;;;;2105832;28;20036;-94
2022/06/16 01:28:03;;;;;;;1.85;0.90;;;16.20;62.90;;;;;;2107134;28;20040;-94
2022/06/16 01:29:47;;;;;;;2.63;1.13;;;16.20;62.30;;;;;;2049560;29;20035;-94
2022/06/16 01:31:21;;;;;;;2.83;1.25;;;16.20;62.30;;;;;;2084910;28;20023;-94
2022/06/16 01:33:09;;;;;;;3.97;1.17;;;16.20;62.40;;;;;;2108976;28;20051;-94
2022/06/16 01:34:48;;;;;;;1.88;0.93;;;16.20;62.50;;;;;;2112764;28;20028;-94
2022/06/16 01:36:16;;;;;;;2.63;1.30;;;16.20;62.50;;;;;;2099140;28;20127;-94
2022/06/16 01:37:57;;;;;;;1.40;0.90;;;16.20;63.20;;;;;;2109100;28;20032;-95
2022/06/16 01:39:36;;;;;;;2.13;1.00;;;16.20;62.60;;;;;;2107580;28;20044;-94
2022/06/16 01:41:04;;;;;;;2.53;1.10;;;16.10;62.60;;;;;;2099490;28;20037;-95
2022/06/16 01:42:34;;;;;;;3.50;1.05;;;16.10;62.70;;;;;;2098643;28;20059;-95
2022/06/16 01:44:03;;;;;;;3.22;1.08;;;16.10;62.80;;;;;;2102200;28;20032;-93
2022/06/16 01:45:32;;;;;;;2.38;1.15;;;16.10;62.90;;;;;;2103544;28;20549;-93
2022/06/16 01:46:59;;;;;;;3.75;1.30;;;16.10;62.90;;;;;;2102616;28;20040;-94
2022/06/16 01:48:20;;;;;;;2.13;0.90;;;16.10;63.10;;;;;;2103033;28;20040;-94
2022/06/16 01:50:04;;;;;;;3.08;1.20;;;16.10;63.20;;;;;;2103931;28;20048;-94
2022/06/16 01:51:29;;;;;;;2.00;1.10;;;16.00;63.10;;;;;;2107425;28;20036;-96
2022/06/16 01:53:04;;;;;;;2.72;1.10;;;16.00;63.20;;;;;;2096119;28;20054;-94
2022/06/16 01:54:39;;;;;;;1.90;1.10;;;16.00;63.30;;;;;;2097441;28;20033;-94
2022/06/16 01:56:17;;;;;;;2.05;1.00;;;16.00;63.40;;;;;;2105619;28;20044;-94
2022/06/16 01:57:49;;;;;;;3.55;1.20;;;16.00;63.50;;;;;;2106120;28;20060;-94
2022/06/16 01:59:15;;;;;;;2.45;1.20;;;15.90;63.50;;;;;;2104173;28;20489;-93
2022/06/16 02:00:35;;;;;;;1.80;1.08;;;15.90;63.60;;;;;;2106318;28;20032;-95
2022/06/16 02:02:00;;;;;;;2.10;1.13;;;15.90;63.60;;;;;;2098780;28;20040;-95
2022/06/16 02:03:32;;;;;;;3.22;1.30;;;15.90;63.80;;;;;;2103556;28;20044;-93
2022/06/16 02:04:58;;;;;;;1.80;1.10;;;15.80;63.80;;;;;;2105284;28;20498;-95
2022/06/16 02:06:23;;;;;;;3.30;1.23;;;15.80;63.90;;;;;;2101392;28;20067;-94
2022/06/16 02:07:49;;;;;;;2.55;1.15;;;15.80;64.00;;;;;;2111163;28;20067;-94
2022/06/16 02:09:12;;;;;;;2.78;1.40;;;15.80;64.20;;;;;;2109797;28;20044;-95
2022/06/16 02:10:41;;;;;;;2.60;1.10;;;15.70;64.20;;;;;;2111237;28;20032;-95
2022/06/16 02:12:03;;;;;;;2.63;1.20;;;15.70;64.30;;;;;;2113595;28;20509;-95
2022/06/16 02:13:28;;;;;;;1.75;1.15;;;15.70;64.30;;;;;;2111322;28;20028;-94
2022/06/16 02:14:52;;;;;;;2.63;1.10;;;15.60;65.10;;;;;;2101928;28;20099;-95
2022/06/16 02:16:18;;;;;;;3.72;1.60;;;15.60;64.60;;;;;;2093512;28;20266;-94
2022/06/16 02:17:37;;;;;;;2.13;1.30;;;15.60;64.60;;;;;;2095058;28;20032;-95
2022/06/16 02:18:58;;;;;;;2.72;1.13;;;15.60;64.80;;;;;;2082432;28;20037;-94
2022/06/16 02:20:20;;;;;;;2.70;1.10;;;15.60;64.90;;;;;;2101753;28;20068;-94
2022/06/16 02:21:45;;;;;;;2.50;1.20;;;15.50;64.90;;;;;;2095277;28;20036;-93
2022/06/16 02:23:05;;;;;;;3.75;1.38;;;15.50;65.00;;;;;;2092944;28;20112;-94
2022/06/16 02:24:26;;;;;;;2.95;1.40;;;15.50;65.00;;;;;;2086273;28;20049;-95
2022/06/16 02:25:48;;;;;;;2.35;1.17;;;15.50;65.10;;;;;;2090180;28;20483;-94
2022/06/16 02:27:07;;;;;;;2.47;1.00;;;15.50;65.10;;;;;;2096412;28;20028;-95
2022/06/16 02:28:27;;;;;;;1.88;1.10;;;15.50;65.10;;;;;;2087024;28;20047;-95
2022/06/16 02:29:46;;;;;;;3.28;1.20;;;15.50;65.20;;;;;;2095325;28;20137;-95
2022/06/16 02:31:41;;;;;;;3.03;1.35;;;15.50;65.20;;;;;;2083338;28;20037;-95
2022/06/16 02:33:16;;;;;;;2.90;1.20;;;15.50;65.30;;;;;;2098551;28;20033;-94
2022/06/16 02:35:13;;;;;;;2.83;1.35;;;15.40;65.20;;;;;;2098364;28;20036;-95
2022/06/16 02:36:48;;;;;;;1.92;1.10;;;15.40;65.20;;;;;;2115124;28;20420;-94
2022/06/16 02:38:18;;;;;;;2.72;1.10;;;15.40;65.20;;;;;;2100136;28;20037;-94
2022/06/16 02:39:49;;;;;;;2.72;1.35;;;15.40;65.30;;;;;;2105139;28;20036;-94
2022/06/16 02:41:22;;;;;;;;;;;15.30;65.90;;;;;;2108517;28;20036;-94
2022/06/16 02:42:50;;;;;;;2.92;1.20;;;15.30;65.40;;;;;;2098729;28;20328;-94
2022/06/16 02:44:22;;;;;;;3.83;1.70;;;15.30;65.40;;;;;;2109872;28;20031;-94
2022/06/16 02:46:09;;;;;;;2.85;1.38;;;15.20;65.40;;;;;;2111884;28;20039;-95
2022/06/16 02:48:04;;;;;;;2.45;1.10;;;15.20;65.50;;;;;;2098494;28;20500;-94
2022/06/16 02:49:31;;;;;;;2.88;1.40;;;15.20;65.50;;;;;;2106869;28;20035;-95
2022/06/16 02:51:01;;;;;;;3.33;1.27;;;15.20;65.50;;;;;;2100628;28;20422;-95
2022/06/16 02:52:34;;;;;;;2.05;1.10;;;15.20;65.60;;;;;;2105079;28;20059;-95
2022/06/16 02:54:11;;;;;;;2.58;1.20;;;15.20;65.60;;;;;;2103771;28;20040;-95
2022/06/16 02:55:40;;;;;;;1.55;1.00;;;15.20;65.60;;;;;;2105839;28;20048;-95
2022/06/16 02:57:14;;;;;;;2.05;1.10;;;15.20;66.20;;;;;;2104818;28;20473;-95
2022/06/16 02:58:37;;;;;;;3.13;1.17;;;15.20;65.60;;;;;;2106041;28;20417;-94
2022/06/16 03:00:08;;;;;;;3.08;1.08;;;15.20;65.60;;;;;;2106520;28;20040;-94
2022/06/16 03:01:30;;;;;;;;;;;15.20;65.60;;;;;;2105446;28;20032;-93
2022/06/16 03:02:49;;;;;;;;;;;15.20;65.60;;;;;;2108713;28;19904;-93
2022/06/16 03:04:17;;;;;;;1.70;0.93;;;15.10;65.50;;;;;;2103903;28;20374;-94
2022/06/16 03:05:37;;;;;;;3.08;1.13;;;15.10;65.40;;;;;;2103212;28;20044;-95
2022/06/16 03:06:57;;;;;;;2.38;1.25;;;15.20;65.60;;;;;;2090825;28;20045;-95
2022/06/16 03:08:17;;;;;;;2.53;1.20;;;15.10;65.60;;;;;;2095690;28;20044;-95
2022/06/16 03:09:37;;;;;;;4.13;1.30;;;15.10;65.70;;;;;;2093152;28;20037;-94
2022/06/16 03:10:58;;;;;;;3.17;1.20;;;15.10;65.80;;;;;;2088399;28;20041;-96
2022/06/16 03:12:18;;;;;;;2.78;1.38;;;15.00;65.90;;;;;;2095387;28;20025;-94
2022/06/16 03:13:38;;;;;;;2.95;1.23;;;15.00;66.00;;;;;;2106746;28;20032;-94
2022/06/16 03:14:57;;;;;;;2.92;1.13;;;15.00;66.10;;;;;;2108441;28;20104;-94
2022/06/16 03:16:16;;;;;;;2.40;1.33;;;15.10;66.80;;;;;;2095720;28;20032;-94
2022/06/16 03:17:35;;;;;;;2.85;1.20;;;15.00;66.20;;;;;;2080975;28;20049;-93
2022/06/16 03:18:55;;;;;;;3.60;1.50;;;15.00;66.20;;;;;;2085852;28;20041;-96
2022/06/16 03:20:14;;;;;;;2.80;1.30;;;15.10;66.30;;;;;;2092285;28;20041;-93
2022/06/16 03:21:33;;;;;;;2.40;1.27;;;15.00;66.30;;;;;;2098607;28;20060;-93
2022/06/16 03:22:52;;;;;;;2.75;1.33;;;15.00;66.30;;;;;;2100742;28;20053;-95
2022/06/16 03:24:12;;;;;;;3.00;1.50;;;15.00;66.30;;;;;;2101430;28;20044;-95
2022/06/16 03:25:32;;;;;;;2.05;1.13;;;15.00;66.40;;;;;;2091684;28;20120;-95
2022/06/16 03:26:51;;;;;;;2.80;1.10;;;15.00;66.40;;;;;;2095931;28;20044;-94
2022/06/16 03:28:13;;;;;;;3.63;1.20;;;14.90;66.40;;;;;;2107866;28;20067;-94
2022/06/16 03:29:33;;;;;;;3.00;1.33;;;14.90;66.50;;;;;;2111586;28;20666;-95
2022/06/16 03:30:52;;;;;;;1.77;1.10;;;14.90;66.60;;;;;;2104033;28;20044;-95
2022/06/16 03:32:11;;;;;;;2.45;1.20;;;14.90;66.60;;;;;;2111997;28;20505;-95
2022/06/16 03:33:31;;;;;;;2.65;1.10;;;14.90;66.60;;;;;;2106173;28;20032;-94
2022/06/16 03:34:50;;;;;;;2.42;1.30;;;14.90;66.70;;;;;;2097376;28;20040;-94
2022/06/16 03:36:11;;;;;;;2.75;1.13;;;14.90;66.80;;;;;;2099963;28;20052;-94
2022/06/16 03:37:30;;;;;;;2.97;1.20;;;14.90;66.80;;;;;;2110408;28;20027;-94
2022/06/16 03:38:50;;;;;;;2.35;1.17;;;14.90;66.80;;;;;;2088754;28;20422;-95
2022/06/16 03:40:13;;;;;;;4.28;1.33;;;14.90;66.90;;;;;;2104890;28;20044;-95
2022/06/16 03:41:33;;;;;;;3.28;1.50;;;14.90;67.00;;;;;;2097128;28;20064;-94
2022/06/16 03:42:52;;;;;;;2.42;1.27;;;14.80;67.00;;;;;;2103699;28;20044;-94
2022/06/16 03:44:11;;;;;;;2.33;1.15;;;14.80;67.00;;;;;;2100050;28;20502;-94
2022/06/16 03:45:31;;;;;;;3.13;1.33;;;14.80;67.10;;;;;;2108546;28;20031;-94
2022/06/16 03:46:50;;;;;;;2.45;1.25;;;14.80;67.20;;;;;;2096744;28;20068;-94
2022/06/16 03:48:10;;;;;;;2.97;1.33;;;14.80;67.20;;;;;;2110992;27;20428;-93
2022/06/16 03:49:29;;;;;;;3.03;1.20;;;14.80;67.30;;;;;;2113403;28;20425;-95
2022/06/16 03:50:49;;;;;;;2.28;1.30;;;14.80;67.30;;;;;;2107171;28;20040;-94
2022/06/16 03:52:08;;;;;;;2.45;1.25;;;14.80;67.40;;;;;;2108695;28;20032;-94
2022/06/16 03:53:28;;;;;;;2.20;1.27;;;14.80;67.40;;;;;;2104310;28;20083;-94
2022/06/16 03:54:47;;;;;;;2.13;1.13;;;14.80;67.50;;;;;;2107629;28;20036;-94
2022/06/16 03:56:07;;;;;;;2.42;1.30;;;14.80;67.50;;;;;;2100382;28;20045;-95
2022/06/16 03:57:27;;;;;;;2.65;1.30;;;14.80;67.50;;;;;;2109128;28;20036;-95
2022/06/16 03:58:51;;;;;;;2.30;1.40;;;14.80;67.50;;;;;;2116786;27;20501;-94
2022/06/16 04:00:13;;;;;;;2.17;1.30;;;14.70;67.50;;;;;;2120681;27;20039;-95
2022/06/16 04:01:32;;;;;;;2.92;1.23;;;14.80;67.60;;;;;;2106200;28;20052;-94
2022/06/16 04:04:30;;;;;;;3.15;1.20;;;14.80;67.70;;;;;;2105809;28;20052;-95
2022/06/16 04:05:50;;;;;;;2.55;1.20;;;14.80;67.60;;;;;;2100104;28;20044;-95
2022/06/16 04:07:10;;;;;;;2.97;1.33;;;14.80;67.60;;;;;;2101659;28;20063;-94
2022/06/16 04:08:29;;;;;;;;;;;14.80;67.60;;;;;;2118213;27;20035;-94
2022/06/16 04:09:49;;;;;;;2.25;1.20;;;14.90;67.50;;;;;;2111633;28;20353;-96
2022/06/16 04:11:27;;;;;;;2.05;1.20;;;14.90;67.40;;;;;;2104143;28;20044;-95
2022/06/16 04:12:46;;;;;;;3.65;1.20;;;14.80;67.40;;;;;;2114130;28;20035;-94
2022/06/16 04:14:12;;;;;;;2.40;1.30;;;14.90;67.50;;;;;;2096201;28;20206;-94
2022/06/16 04:15:32;;;;;;;1.95;1.08;;;14.90;67.50;;;;;;2116717;27;20023;-94
2022/06/16 04:16:56;;;;;;;1.98;1.20;;;14.90;67.50;;;;;;2110102;28;20047;-94
2022/06/16 04:18:19;;;;;;;2.67;1.27;;;14.80;67.50;;;;;;2107920;28;20048;-94
2022/06/16 04:20:11;;;;;;;2.75;1.10;;;14.90;67.70;;;;;;2109665;28;20028;-94
2022/06/16 04:21:20;;;;;;;1.98;1.17;;;14.80;67.70;;;;;;2116541;28;20043;-93
2022/06/16 04:22:40;;;;;;;3.00;1.30;;;14.80;67.80;;;;;;2105360;28;20052;-94
2022/06/16 04:24:00;;;;;;;2.38;1.23;;;14.80;67.90;;;;;;2091617;28;20048;-94
2022/06/16 04:25:22;;;;;;;2.25;1.25;;;14.70;67.90;;;;;;2098641;28;20060;-95
2022/06/16 04:26:42;;;;;;;2.95;1.38;;;14.70;68.00;;;;;;2098173;28;21612;-95
2022/06/16 04:28:03;;;;;;;2.97;1.42;;;14.70;68.10;;;;;;2098481;28;20041;-94
2022/06/16 04:29:24;;;;;;;2.90;1.45;;;14.70;68.20;;;;;;2103824;28;20032;-94
2022/06/16 04:30:44;;;;;;;2.25;1.30;;;14.70;68.30;;;;;;2088649;28;20040;-94
2022/06/16 04:32:03;;;;;;;2.83;1.25;;;14.70;68.40;;;;;;2093280;28;20495;-95
2022/06/16 04:33:23;;;;;;;3.15;1.50;;;14.70;68.50;;;;;;2091653;28;20045;-94
2022/06/16 04:34:44;;;;;;;3.13;1.30;;;14.70;68.50;;;;;;2094590;28;20506;-96
2022/06/16 04:36:04;;;;;;;3.45;1.42;;;14.70;68.60;;;;;;2088793;28;20061;-95
2022/06/16 04:37:23;;;;;;;4.20;1.60;;;14.70;68.60;;;;;;2092169;28;20040;-94
2022/06/16 04:38:42;;;;;;;2.35;1.30;;;14.70;68.60;;;;;;2099565;28;20040;-95
2022/06/16 04:40:01;;;;;;;3.13;1.23;;;14.70;68.60;;;;;;2104701;28;20532;-94
2022/06/16 04:41:21;;;;;;;2.72;1.23;;;14.70;68.60;;;;;;2084892;28;20049;-95
2022/06/16 04:42:41;;;;;;;2.77;1.37;;;14.70;68.60;;;;;;2093014;28;20040;-95
2022/06/16 04:44:00;;;;;;;2.13;1.17;;;14.80;68.70;;;;;;2090791;28;20323;-95
2022/06/16 04:45:20;;;;;;;2.63;1.13;;;14.70;68.70;;;;;;2086829;28;20045;-95
2022/06/16 04:46:39;;;;;;;3.25;1.00;;;14.70;68.70;;;;;;2099637;28;20036;-95
2022/06/16 04:47:58;;;;;;;3.72;1.10;;;14.70;68.70;;;;;;2098329;28;20041;-95
2022/06/16 04:49:18;;;;;;;2.13;1.20;;;14.80;68.80;;;;;;2097614;28;20035;-95
2022/06/16 04:50:37;;;;;;;3.05;1.33;;;14.80;68.90;;;;;;2094579;28;20068;-94
2022/06/16 04:51:57;;;;;;;2.88;1.10;;;14.80;68.80;;;;;;2091122;28;20045;-95
2022/06/16 04:53:16;;;;;;;3.83;1.50;;;14.90;68.90;;;;;;2081592;28;20038;-95
2022/06/16 04:54:37;;;;;;;1.88;1.00;;;14.90;68.80;;;;;;2077699;28;20156;-95
2022/06/16 04:55:58;;;;;;;3.22;1.30;;;15.10;68.80;;;;;;2085280;28;20040;-96
2022/06/16 04:57:18;;;;;;;2.75;1.10;;;15.20;68.60;;;;;;2099657;28;20103;-95
2022/06/16 04:58:37;;;;;;;2.15;1.20;;;15.30;68.40;;;;;;2094140;28;20436;-94
2022/06/16 04:59:57;;;;;;;3.13;1.30;;;15.40;68.30;;;;;;2085575;28;20502;-95
2022/06/16 05:01:16;;;;;;;2.15;1.20;;;15.50;68.20;;;;;;2078266;28;20127;-94
2022/06/16 05:02:35;;;;;;;3.17;1.20;;;15.60;68.00;;;;;;2085086;28;20053;-95
2022/06/16 05:03:54;;;;;;;4.20;1.30;;;15.60;67.80;;;;;;2089033;28;20064;-96
2022/06/16 05:05:14;;;;;;;2.78;1.23;;;15.60;67.70;;;;;;2090558;28;20049;-95
2022/06/16 05:06:33;;;;;;;2.38;1.23;;;15.70;67.80;;;;;;2091365;28;20036;-95
2022/06/16 05:07:52;;;;;;;3.20;1.25;;;15.60;67.80;;;;;;2092386;28;20498;-94
2022/06/16 05:09:11;;;;;;;2.65;1.10;;;15.70;68.50;;;;;;2088395;28;20064;-94
2022/06/16 05:10:30;;;;;;;2.03;1.25;;;15.70;67.80;;;;;;2092629;28;20407;-93
2022/06/16 05:11:50;;;;;;;1.73;1.20;;;15.80;67.80;;;;;;2084682;28;20029;-94
2022/06/16 05:13:10;;;;;;;1.73;1.10;;;15.90;67.80;;;;;;2093015;28;20029;-93
2022/06/16 05:14:29;;;;;;;1.83;1.00;;;15.90;67.50;;;;;;2098371;28;20036;-93
2022/06/16 05:15:53;;;;;;;3.40;1.17;;;16.00;67.50;;;;;;2083952;28;20321;-92
2022/06/16 05:17:12;;;;;;;2.10;1.20;;;16.10;67.30;;;;;;2093303;28;20041;-93
2022/06/16 05:18:31;;;;;;;1.85;1.20;;;16.20;67.20;;;;;;2087570;28;20511;-94
2022/06/16 05:19:51;;;;;;;2.17;1.10;;;16.20;67.10;;;;;;2096921;28;20044;-94
2022/06/16 05:21:13;;;;;;;2.15;1.13;;;16.30;67.10;;;;;;2101449;28;20032;-96
2022/06/16 05:22:33;;;;;;;2.40;1.05;;;16.40;67.00;;;;;;2111371;28;20035;-96
2022/06/16 05:23:53;;;;;;;3.42;1.13;;;16.40;66.90;;;;;;2111956;28;20052;-94
2022/06/16 05:25:12;;;;;;;3.20;1.15;;;16.50;66.80;;;;;;2089986;28;20044;-93
2022/06/16 05:26:31;;;;;;;2.63;1.10;;;16.60;66.60;;;;;;2093072;28;20050;-94
2022/06/16 05:27:51;;;;;;;2.10;1.00;;;16.70;66.40;;;;;;2097875;28;20028;-94
2022/06/16 05:29:10;;;;;;;2.00;0.93;;;16.80;66.30;;;;;;2095708;28;20503;-94
2022/06/16 05:30:29;;;;;;;2.55;1.33;;;16.90;66.10;;;;;;2089335;28;20732;-93
2022/06/16 05:31:48;;;;;;;3.60;1.27;;;16.90;65.90;;;;;;2088856;28;20533;-94
2022/06/16 05:33:07;;;;;;;2.55;1.10;;;17.00;66.00;;;;;;2101142;28;20047;-94
2022/06/16 05:34:27;;;;;;;2.08;1.08;;;17.00;66.00;;;;;;2095562;28;20096;-94
2022/06/16 05:36:00;;;;;;;2.03;1.10;;;17.10;65.80;;;;;;2094640;28;20040;-94
2022/06/16 05:37:20;;;;;;;2.70;1.02;;;17.20;65.60;;;;;;2107322;28;20040;-94
2022/06/16 05:38:40;;;;;;;2.05;0.80;;;17.30;65.50;;;;;;2106853;28;20537;-93
2022/06/16 05:40:00;;;;;;;1.95;0.88;;;17.40;65.30;;;;;;2112292;28;20067;-93
2022/06/16 05:41:21;;;;;;;1.40;0.80;;;17.50;65.10;;;;;;2107803;28;20044;-95
2022/06/16 05:42:41;;;;;;;1.90;0.85;;;17.50;65.00;;;;;;2103772;28;20044;-95
2022/06/16 05:44:00;;;;;;;1.73;0.93;;;17.50;64.90;;;;;;2097266;28;20157;-94
2022/06/16 05:45:19;;;;;;;1.90;0.82;;;17.60;64.90;;;;;;2092625;28;20049;-94
2022/06/16 05:46:40;;;;;;;2.70;1.05;;;17.60;64.80;;;;;;2088910;28;20037;-94
2022/06/16 05:47:59;;;;;;;;;;;17.60;64.70;;;;;;2092157;28;20053;-95
2022/06/16 05:49:19;;;;;;;1.58;0.55;;;17.60;64.70;;;;;;2100368;28;19995;-95
2022/06/16 05:50:38;;;;;;;2.80;1.02;;;17.60;64.70;;;;;;2095766;28;20072;-94
2022/06/16 05:51:57;;;;;;;1.73;0.82;;;17.70;64.60;;;;;;2101687;28;20051;-94
2022/06/16 05:53:17;;;;;;;1.95;0.70;;;17.70;64.50;;;;;;2097446;28;20064;-95
2022/06/16 05:54:37;;;;;;;2.00;0.80;;;17.80;64.30;;;;;;2104385;28;20118;-94
2022/06/16 05:55:56;;;;;;;2.17;0.75;;;17.80;64.20;;;;;;2105014;28;20044;-95
2022/06/16 05:57:15;;;;;;;2.85;0.80;;;17.80;64.10;;;;;;2101925;28;20037;-96
2022/06/16 05:58:35;;;;;;;1.55;0.60;;;17.90;64.00;;;;;;2098882;28;20131;-95
2022/06/16 05:59:54;;;;;;;1.27;0.70;;;18.00;63.90;;;;;;2096670;28;20040;-95
2022/06/16 06:01:14;;;;;;;1.40;0.90;;;18.10;63.80;;;;;;2094395;28;20040;-95
2022/06/16 06:02:33;;;;;;;3.17;0.80;;;18.20;63.50;;;;;;2092635;28;20072;-94
2022/06/16 06:03:52;;;;;;;1.65;0.75;;;18.20;63.10;;;;;;2105605;28;20493;-95
2022/06/16 06:05:11;;;;;;;1.75;0.60;;;18.30;63.00;;;;;;2103039;28;20052;-94
2022/06/16 06:06:31;;;;;;;2.40;0.60;;;18.40;62.90;;;;;;2088461;28;20041;-95
2022/06/16 06:16:26;;;;;;;1.27;0.50;;;18.70;62.00;;;;;;2117436;28;20417;-94
2022/06/16 06:17:45;;;;;;;1.73;0.50;;;18.80;61.70;;;;;;2107308;28;20040;-94
2022/06/16 06:19:26;;;;;;;2.03;0.73;;;18.80;61.50;;;;;;2097895;28;20071;-93
2022/06/16 06:20:49;;;;;;;2.47;0.70;;;18.80;61.20;;;;;;2112107;28;20035;-94
2022/06/16 06:22:13;;;;;;;1.65;0.55;;;18.90;61.10;;;;;;2093318;28;20454;-94
2022/06/16 06:23:33;;;;;;;1.35;0.65;;;18.80;60.90;;;;;;2104730;28;20044;-94
2022/06/16 06:24:55;;;;;;;2.15;0.80;;;18.90;60.70;;;;;;2101956;28;20154;-89
2022/06/16 06:26:14;;;;;;;1.20;0.60;;;19.00;60.70;;;;;;2113265;28;20496;-91
2022/06/16 06:27:34;;;;;;;1.20;0.52;;;19.00;60.70;;;;;;2103283;28;20032;-90
2022/06/16 06:28:53;;;;;;;;;;;19.10;60.60;;;;;;2104910;28;20067;-89
2022/06/16 06:30:26;;;;;;;1.98;0.80;;;19.10;60.40;;;;;;2102246;28;19939;-88
2022/06/16 06:31:46;;;;;;;1.10;0.60;;;19.20;60.30;;;;;;2110270;28;20028;-89
2022/06/16 06:33:05;;;;;;;0.77;0.50;;;19.30;60.10;;;;;;2095343;28;20041;-88
2022/06/16 06:34:25;;;;;;;2.17;0.70;;;19.40;60.00;;;;;;2097387;28;20134;-89
2022/06/16 06:35:44;;;;;;;1.23;0.57;;;19.50;59.80;;;;;;2098895;28;20506;-89
2022/06/16 06:37:04;;;;;;;2.25;0.60;;;19.50;59.60;;;;;;2095551;28;20115;-88
2022/06/16 06:38:24;;;;;;;2.08;0.65;;;19.60;59.50;;;;;;2104353;28;20043;-87
2022/06/16 06:39:44;;;;;;;1.77;0.50;;;19.70;59.20;;;;;;2097775;28;20045;-89
2022/06/16 06:41:04;;;;;;;1.05;0.45;;;19.60;58.80;;;;;;2108168;28;20432;-88
2022/06/16 06:42:24;;;;;;;1.63;0.60;;;19.70;58.70;;;;;;2110748;28;20035;-88
2022/06/16 06:43:43;;;;;;;1.98;0.68;;;19.70;58.60;;;;;;2102855;28;20044;-87
2022/06/16 06:45:03;;;;;;;0.98;0.50;;;19.70;58.60;;;;;;2111019;28;20083;-87
2022/06/16 06:46:24;;;;;;;1.55;0.73;;;19.70;58.30;;;;;;2095235;28;20041;-87
2022/06/16 06:47:45;;;;;;;;;;;19.80;58.40;;;;;;2095261;28;20119;-88
2022/06/16 06:49:04;;;;;;;2.15;0.50;;;19.80;58.00;;;;;;2108722;28;19947;-87
2022/06/16 06:50:31;;;;;;;1.40;0.50;;;19.70;57.70;;;;;;2102456;28;20044;-88
2022/06/16 06:51:50;;;;;;;0.80;0.40;;;19.70;57.70;;;;;;2107571;28;20118;-88
2022/06/16 06:53:11;;;;;;;1.50;0.47;;;19.70;57.90;;;;;;2108977;28;20517;-88
2022/06/16 06:54:31;;;;;;;0.80;0.40;;;19.70;57.30;;;;;;2105810;28;20468;-88
2022/06/16 06:55:50;;;;;;;0.65;0.40;;;19.70;56.80;;;;;;2099193;28;20465;-89
2022/06/16 06:57:22;;;;;;;2.42;0.60;;;19.60;56.90;;;;;;2088658;28;20044;-89
2022/06/16 06:58:41;;;;;;;1.58;0.60;;;19.60;56.70;;;;;;2109683;28;20126;-87
2022/06/16 07:00:00;;;;;;;1.40;0.65;;;19.60;56.70;;;;;;2104432;28;20497;-88
2022/06/16 07:01:20;;;;;;;1.02;0.35;;;19.60;56.40;;;;;;2100641;28;20040;-88
2022/06/16 07:02:39;;;;;;;1.08;0.40;;;19.60;56.60;;;;;;2100259;28;20115;-89
2022/06/16 07:03:58;;;;;;;1.48;0.50;;;19.70;56.70;;;;;;2103427;27;20039;-88
2022/06/16 07:05:18;;;;;;;2.28;0.60;;;19.70;56.50;;;;;;2099425;28;20048;-89
2022/06/16 07:06:38;;;;;;;;;;;19.80;56.20;;;;;;2104889;28;20040;-88
2022/06/16 07:07:58;;;;;;;1.00;0.45;;;19.90;56.10;;;;;;2113013;28;19947;-88
2022/06/16 07:09:18;;;;;;;1.77;0.93;;;19.90;56.20;;;;;;2100293;28;20047;-89
2022/06/16 07:10:39;;;;;;;1.08;0.38;;;19.90;56.00;;;;;;2096805;28;20040;-88
2022/06/16 07:11:58;;;;;;;2.45;0.70;;;19.90;56.00;;;;;;2102841;28;20055;-87
2022/06/16 07:13:18;;;;;;;1.85;0.60;;;20.00;56.00;;;;;;2104084;28;20052;-88
2022/06/16 07:14:38;;;;;;;0.70;0.30;;;20.10;55.80;;;;;;2100989;28;20067;-87
2022/06/16 07:15:57;;;;;;;1.45;0.57;;;20.20;55.50;;;;;;2099038;28;20048;-86
2022/06/16 07:17:20;;;;;;;1.70;0.50;;;20.20;55.20;;;;;;2101124;28;20534;-87
2022/06/16 07:18:39;;;;;;;2.58;0.52;;;20.30;54.80;;;;;;2108471;28;20465;-87
2022/06/16 07:19:58;;;;;;;1.98;0.60;;;20.30;54.80;;;;;;2108451;28;20422;-88
2022/06/16 07:21:18;;;;;;;1.00;0.40;;;20.40;54.70;;;;;;2095823;28;21136;-89
2022/06/16 07:22:37;;;;;;;0.93;0.40;;;20.40;54.40;;;;;;2106340;28;20071;-89
2022/06/16 07:23:56;;;;;;;1.83;0.50;;;20.40;54.30;;;;;;2098222;28;20871;-89
2022/06/16 07:25:16;;;;;;;1.05;0.40;;;20.40;54.20;;;;;;2108437;28;20043;-88
2022/06/16 07:26:37;;;;;;;2.92;0.60;;;20.40;54.20;;;;;;2095771;28;20040;-89
2022/06/16 07:28:04;;;;;;;0.75;0.38;;;20.50;53.80;;;;;;2090837;28;20049;-88
2022/06/16 07:29:28;;;;;;;1.08;0.38;;;20.50;53.70;;;;;;2094772;28;20123;-88
2022/06/16 07:30:47;;;;;;;1.55;0.40;;;20.50;53.60;;;;;;2090913;28;20065;-88